Time;durP1;ratioP1;P1;durP2;ratioP2;P2;SDS_P1;SDS_P2;PMS_P1;PMS_P2;Temp;Humidity;BMP_temperature;BMP_pressure;BME280_temperature;BME280_humidity;BME280_pressure;Samples;Min_cycle;Max_cycle;Signal;HPM_P1;HPM_P2
2022/09/14 00:00:04;;;;;;;1999.90;999.90;;;14.10;1.00;;;;;;5094889;28;20134;-82
2022/09/14 00:02:30;;;;;;;1999.90;999.90;;;14.10;1.00;;;;;;5113917;28;20047;-82
2022/09/14 00:04:56;;;;;;;1999.90;999.90;;;14.10;1.00;;;;;;5095867;28;20454;-83
2022/09/14 00:07:21;;;;;;;1999.90;999.90;;;14.00;1.00;;;;;;5113264;28;20050;-82
2022/09/14 00:09:47;;;;;;;1999.90;999.90;;;14.00;1.00;;;;;;5095629;28;20168;-88
2022/09/14 00:12:13;;;;;;;1999.90;999.90;;;14.00;1.00;;;;;;5114576;28;20472;-84
2022/09/14 00:14:39;;;;;;;1999.90;999.90;;;14.00;1.00;;;;;;5113347;28;20078;-82
2022/09/14 00:17:05;;;;;;;1999.90;999.90;;;13.90;1.00;;;;;;5115089;28;20048;-82
2022/09/14 00:19:30;;;;;;;1999.90;999.90;;;14.00;1.00;;;;;;5112805;28;20043;-86
2022/09/14 00:21:58;;;;;;;1999.90;999.90;;;15.10;1.00;;;;;;5112203;28;20043;-83
2022/09/14 00:24:25;;;;;;;1999.90;977.38;;;13.90;1.00;;;;;;5113150;28;20126;-83
2022/09/14 00:26:51;;;;;;;1999.90;999.90;;;13.90;1.00;;;;;;5094878;28;20047;-88
2022/09/14 00:29:17;;;;;;;1999.90;999.90;;;14.00;1.00;;;;;;5095274;28;20104;-83
2022/09/14 00:31:44;;;;;;;1999.90;848.10;;;14.00;1.00;;;;;;5094956;28;20056;-82
2022/09/14 00:34:13;;;;;;;1999.90;999.90;;;14.20;1.00;;;;;;5078766;28;20050;-82
2022/09/14 00:36:45;;;;;;;1999.90;999.90;;;14.20;1.00;;;;;;5094859;28;20039;-86
2022/09/14 00:39:11;;;;;;;1999.90;999.90;;;14.30;1.00;;;;;;5094546;28;20122;-82
2022/09/14 00:41:40;;;;;;;1999.90;999.90;;;14.30;1.00;;;;;;5113767;28;20043;-82
2022/09/14 00:44:11;;;;;;;1999.90;795.33;;;14.30;1.00;;;;;;5113146;28;20040;-83
2022/09/14 00:46:47;;;;;;;1999.90;999.90;;;14.40;1.00;;;;;;5094457;28;20051;-82
2022/09/14 00:49:24;;;;;;;1999.90;999.90;;;14.40;1.00;;;;;;5113011;28;20055;-82
2022/09/14 00:52:16;;;;;;;1999.90;999.90;;;14.40;1.00;;;;;;5112230;28;20461;-86
2022/09/14 00:54:48;;;;;;;1999.90;999.90;;;14.50;1.00;;;;;;5112864;28;20043;-81
2022/09/14 00:57:15;;;;;;;1999.90;554.05;;;14.50;1.00;;;;;;5112177;28;20472;-83
2022/09/14 00:59:43;;;;;;;1999.90;999.90;;;14.50;1.00;;;;;;5112478;28;20515;-82
2022/09/14 01:02:11;;;;;;;1999.90;946.63;;;14.50;1.00;;;;;;5094115;28;20507;-81
2022/09/14 01:04:37;;;;;;;1999.90;999.90;;;14.60;1.00;;;;;;5095059;28;20105;-82
2022/09/14 01:07:21;;;;;;;1999.90;999.90;;;14.50;1.00;;;;;;5110961;28;20500;-82
2022/09/14 01:10:25;;;;;;;1999.90;812.00;;;14.50;1.00;;;;;;5094146;28;20043;-87
2022/09/14 01:13:09;;;;;;;1999.90;893.03;;;14.50;1.00;;;;;;5094520;28;20067;-83
2022/09/14 01:15:51;;;;;;;1999.90;999.90;;;14.40;1.00;;;;;;5111686;28;20504;-82
2022/09/14 01:18:23;;;;;;;1999.90;999.90;;;14.40;1.00;;;;;;5111901;28;20050;-83
2022/09/14 01:20:49;;;;;;;1999.90;999.90;;;14.30;1.00;;;;;;5113085;28;20048;-83
2022/09/14 01:23:46;;;;;;;1999.90;999.90;;;14.30;1.00;;;;;;5110919;28;20126;-82
2022/09/14 01:26:35;;;;;;;1999.90;974.28;;;14.40;1.00;;;;;;5093524;28;20044;-84
2022/09/14 01:29:29;;;;;;;1999.90;999.90;;;14.40;1.00;;;;;;5110264;28;20043;-82
2022/09/14 01:32:27;;;;;;;1999.90;999.90;;;14.50;1.00;;;;;;5093940;28;20065;-81
2022/09/14 01:34:56;;;;;;;1999.90;999.90;;;14.40;1.00;;;;;;5112360;28;20104;-83
2022/09/14 01:37:34;;;;;;;1999.90;926.03;;;14.70;1.00;;;;;;5111790;28;20117;-83
2022/09/14 01:40:06;;;;;;;1999.90;999.90;;;14.40;1.00;;;;;;5113724;28;20047;-84
2022/09/14 01:42:34;;;;;;;1999.90;999.90;;;14.30;1.00;;;;;;5111685;28;20551;-85
2022/09/14 01:45:06;;;;;;;1999.90;999.90;;;14.30;1.00;;;;;;5112157;28;20052;-83
2022/09/14 01:47:46;;;;;;;1999.90;999.90;;;14.30;1.00;;;;;;5111211;28;20048;-82
2022/09/14 01:50:50;;;;;;;1999.90;999.90;;;14.30;1.00;;;;;;5111524;28;20047;-87
2022/09/14 01:53:30;;;;;;;1999.90;999.90;;;14.20;1.00;;;;;;5106293;28;20126;-82
2022/09/14 01:56:04;;;;;;;1999.90;999.90;;;14.20;1.00;;;;;;5113128;28;20039;-82
2022/09/14 01:58:31;;;;;;;1999.90;999.90;;;14.20;1.00;;;;;;5111444;28;20040;-82
2022/09/14 02:01:01;;;;;;;1999.90;999.90;;;14.20;1.00;;;;;;5111687;28;20043;-82
2022/09/14 02:03:31;;;;;;;1999.90;999.90;;;14.80;1.00;;;;;;5092171;28;20122;-83
2022/09/14 02:06:05;;;;;;;1999.90;999.90;;;14.20;1.00;;;;;;5093754;28;20090;-83
2022/09/14 02:08:32;;;;;;;1999.90;999.90;;;14.10;1.00;;;;;;5110909;28;20043;-82
2022/09/14 02:10:58;;;;;;;1999.90;999.90;;;14.20;1.00;;;;;;5093870;28;20085;-82
2022/09/14 02:13:25;;;;;;;1999.90;999.90;;;14.20;1.00;;;;;;5110121;28;20082;-82
2022/09/14 02:15:51;;;;;;;1999.90;999.90;;;14.20;1.00;;;;;;5110917;28;20044;-85
2022/09/14 02:18:18;;;;;;;1999.90;999.90;;;14.20;1.00;;;;;;5093071;28;20533;-85
2022/09/14 02:20:55;;;;;;;1999.90;999.90;;;14.30;1.00;;;;;;5111240;28;20089;-82
2022/09/14 02:23:21;;;;;;;1999.90;999.90;;;14.30;1.00;;;;;;5111228;28;20491;-82
2022/09/14 02:25:47;;;;;;;1999.90;999.90;;;14.40;1.00;;;;;;5111110;28;20373;-81
2022/09/14 02:28:13;;;;;;;1999.90;999.90;;;14.40;1.00;;;;;;5092613;28;20169;-82
2022/09/14 02:31:01;;;;;;;1999.90;999.90;;;14.50;1.00;;;;;;5092344;28;20047;-87
2022/09/14 02:33:47;;;;;;;1999.90;999.90;;;14.60;1.00;;;;;;5092173;28;20051;-81
2022/09/14 02:36:23;;;;;;;1999.90;999.90;;;14.60;1.00;;;;;;5110899;28;20514;-82
2022/09/14 02:39:03;;;;;;;1999.90;999.90;;;14.70;1.00;;;;;;5110871;28;20052;-81
2022/09/14 02:41:50;;;;;;;1999.90;999.90;;;14.70;1.00;;;;;;5075968;28;20510;-82
2022/09/14 02:44:27;;;;;;;1999.90;999.90;;;14.80;1.00;;;;;;5092764;28;20126;-82
2022/09/14 02:47:18;;;;;;;1999.90;999.90;;;14.80;1.00;;;;;;5109308;28;20446;-83
2022/09/14 02:50:00;;;;;;;1999.90;999.90;;;14.80;1.00;;;;;;5110333;28;20082;-81
2022/09/14 02:52:56;;;;;;;1999.90;999.90;;;14.90;1.00;;;;;;5109740;28;20040;-83
2022/09/14 02:55:25;;;;;;;1999.90;999.90;;;14.90;1.00;;;;;;5091858;28;20130;-88
2022/09/14 02:58:08;;;;;;;1999.90;999.90;;;14.90;1.00;;;;;;5110404;28;20047;-82
2022/09/14 03:00:39;;;;;;;1999.90;999.90;;;15.00;1.00;;;;;;5107695;28;20364;-83
2022/09/14 03:03:06;;;;;;;1999.90;999.90;;;15.00;1.00;;;;;;5109059;28;20142;-84
2022/09/14 03:05:32;;;;;;;1999.90;999.90;;;14.90;1.00;;;;;;5092322;28;20048;-83
2022/09/14 03:07:59;;;;;;;1999.90;800.60;;;15.00;1.00;;;;;;5110154;28;20043;-82
2022/09/14 03:10:25;;;;;;;1999.90;845.60;;;15.00;1.00;;;;;;5109552;28;20114;-86
2022/09/14 03:12:52;;;;;;;1999.90;795.70;;;15.00;1.00;;;;;;5109997;28;20451;-82
2022/09/14 03:15:17;;;;;;;1999.90;868.67;;;15.00;1.00;;;;;;5114478;28;20058;-84
2022/09/14 03:17:48;;;;;;;1999.90;999.90;;;15.00;1.00;;;;;;5079057;28;20047;-83
2022/09/14 03:20:15;;;;;;;1999.90;797.33;;;15.10;1.00;;;;;;5096062;28;20127;-83
2022/09/14 03:22:41;;;;;;;;;;;15.10;1.00;;;;;;5113953;28;20127;-81
2022/09/14 03:25:07;;;;;;;1999.90;727.95;;;15.10;1.00;;;;;;5114643;28;19962;-82
2022/09/14 03:27:32;;;;;;;1999.90;848.50;;;15.10;1.00;;;;;;5113837;28;20488;-81
2022/09/14 03:29:58;;;;;;;1999.90;748.67;;;15.10;1.00;;;;;;5096083;28;20073;-84
2022/09/14 03:32:24;;;;;;;1999.90;841.55;;;15.10;1.00;;;;;;5095568;28;20143;-82
2022/09/14 03:34:50;;;;;;;1999.90;999.90;;;15.10;1.00;;;;;;5113954;28;20047;-82
2022/09/14 03:37:15;;;;;;;1999.90;999.90;;;15.10;1.00;;;;;;5095721;28;20040;-82
2022/09/14 03:39:41;;;;;;;1999.90;999.90;;;15.10;1.00;;;;;;5113876;28;20043;-81
2022/09/14 03:42:07;;;;;;;1999.90;999.90;;;15.20;1.00;;;;;;5095183;28;20047;-84
2022/09/14 03:44:32;;;;;;;1999.90;811.03;;;15.20;1.00;;;;;;5112854;28;20043;-82
2022/09/14 03:46:58;;;;;;;1999.90;999.90;;;15.20;1.00;;;;;;5113746;28;20126;-81
2022/09/14 03:49:24;;;;;;;1999.90;855.20;;;15.50;1.00;;;;;;5114645;28;20039;-81
2022/09/14 03:51:50;;;;;;;1999.90;837.70;;;15.20;1.00;;;;;;5096240;28;20043;-81
2022/09/14 03:54:15;;;;;;;1999.90;999.90;;;15.30;1.00;;;;;;5112051;28;20043;-82
2022/09/14 03:56:41;;;;;;;1999.90;999.90;;;15.20;1.00;;;;;;5111922;28;20040;-82
2022/09/14 03:59:10;;;;;;;1999.90;999.90;;;15.30;1.00;;;;;;5114202;28;20423;-82
2022/09/14 04:01:37;;;;;;;1999.90;851.13;;;15.30;1.00;;;;;;5112848;28;20134;-82
2022/09/14 04:04:03;;;;;;;1999.90;678.65;;;15.30;1.00;;;;;;5113396;28;20078;-83
2022/09/14 04:06:29;;;;;;;1999.90;999.90;;;15.30;1.00;;;;;;5095902;28;20142;-82
2022/09/14 04:08:54;;;;;;;1999.90;999.90;;;15.30;1.00;;;;;;5079114;28;20130;-81
2022/09/14 04:11:23;;;;;;;1999.90;999.90;;;15.30;1.00;;;;;;5097001;28;20079;-81
2022/09/14 04:13:49;;;;;;;1999.90;999.90;;;15.40;1.00;;;;;;5114225;28;20060;-84
2022/09/14 04:16:17;;;;;;;1999.90;999.90;;;15.40;1.00;;;;;;5114135;28;20047;-81
2022/09/14 04:18:43;;;;;;;1999.90;999.90;;;15.40;1.00;;;;;;5113948;28;20051;-81
2022/09/14 04:21:13;;;;;;;1999.90;999.90;;;15.40;1.00;;;;;;5113321;28;20100;-82
2022/09/14 04:23:38;;;;;;;1999.90;999.90;;;16.60;1.00;;;;;;5078005;28;20344;-82
2022/09/14 04:26:12;;;;;;;1999.90;999.90;;;15.40;1.00;;;;;;5095128;28;20087;-82
2022/09/14 04:28:39;;;;;;;1999.90;999.90;;;15.50;1.00;;;;;;5113338;28;20054;-81
2022/09/14 04:31:05;;;;;;;1999.90;999.90;;;15.50;1.00;;;;;;5095691;28;20055;-83
2022/09/14 04:33:33;;;;;;;1999.90;999.90;;;14.50;1.00;;;;;;5112964;28;20054;-81
2022/09/14 04:36:02;;;;;;;;;;;15.50;1.00;;;;;;5112139;28;20060;-81
2022/09/14 04:38:29;;;;;;;1999.90;999.90;;;15.50;1.00;;;;;;5094546;28;19927;-80
2022/09/14 04:40:56;;;;;;;1999.90;999.90;;;15.50;1.00;;;;;;5078702;28;20424;-80
2022/09/14 04:43:23;;;;;;;1999.90;999.90;;;15.50;1.00;;;;;;5113632;28;20054;-81
2022/09/14 04:45:48;;;;;;;1999.90;999.90;;;15.50;1.00;;;;;;5111581;28;20044;-83
2022/09/14 04:48:15;;;;;;;1999.90;999.90;;;15.50;1.00;;;;;;5095280;28;20088;-80
2022/09/14 04:50:40;;;;;;;1999.90;999.90;;;15.50;1.00;;;;;;5112137;28;20112;-82
2022/09/14 04:53:06;;;;;;;1999.90;999.90;;;15.50;1.00;;;;;;5113437;28;20476;-81
2022/09/14 04:55:32;;;;;;;1999.90;999.90;;;15.50;1.00;;;;;;5113255;28;20056;-81
2022/09/14 04:57:57;;;;;;;1999.90;999.90;;;15.50;1.00;;;;;;5093849;28;20395;-81
2022/09/14 05:00:23;;;;;;;1999.90;999.90;;;15.50;1.00;;;;;;5112588;28;20047;-81
2022/09/14 05:02:49;;;;;;;1999.90;999.90;;;15.50;1.00;;;;;;5093777;28;20044;-80
2022/09/14 05:05:14;;;;;;;1999.90;999.90;;;15.50;1.00;;;;;;5113411;28;20130;-80
2022/09/14 05:07:40;;;;;;;1999.90;999.90;;;15.60;1.00;;;;;;5112618;28;20082;-81
2022/09/14 05:10:07;;;;;;;1999.90;999.90;;;15.60;1.00;;;;;;5113683;28;20055;-80
2022/09/14 05:12:33;;;;;;;1999.90;999.90;;;15.60;1.00;;;;;;5112797;28;20047;-81
2022/09/14 05:14:58;;;;;;;1999.90;999.90;;;15.60;1.00;;;;;;5074781;28;1095960;-80
2022/09/14 05:17:24;;;;;;;1999.90;999.90;;;15.60;1.00;;;;;;5113190;28;20138;-82
2022/09/14 05:19:50;;;;;;;1999.90;999.90;;;15.60;1.00;;;;;;5095367;28;20472;-81
2022/09/14 05:22:16;;;;;;;1999.90;999.90;;;15.60;1.00;;;;;;5112546;28;20279;-80
2022/09/14 05:24:41;;;;;;;1999.90;999.90;;;15.60;1.00;;;;;;5113347;28;20073;-81
2022/09/14 05:27:07;;;;;;;1999.90;999.90;;;15.60;1.00;;;;;;5113160;28;20487;-80
2022/09/14 05:29:33;;;;;;;1999.90;999.90;;;15.70;1.00;;;;;;5113035;28;20046;-82
2022/09/14 05:31:59;;;;;;;1999.90;999.90;;;15.70;1.00;;;;;;5111689;28;20076;-80
2022/09/14 05:34:25;;;;;;;1999.90;999.90;;;15.70;1.00;;;;;;5113658;28;20126;-81
2022/09/14 05:36:50;;;;;;;1999.90;999.90;;;15.70;1.00;;;;;;5093993;28;20176;-83
2022/09/14 05:39:16;;;;;;;1999.90;999.90;;;15.70;1.00;;;;;;5113511;28;20044;-81
2022/09/14 05:41:42;;;;;;;1999.90;999.90;;;15.80;1.00;;;;;;5095035;28;20484;-82
2022/09/14 05:44:07;;;;;;;1999.90;999.90;;;15.80;1.00;;;;;;5078068;28;20111;-82
2022/09/14 05:46:33;;;;;;;1999.90;999.90;;;15.80;1.00;;;;;;5095269;28;20087;-81
2022/09/14 05:48:59;;;;;;;1999.90;999.90;;;15.90;1.00;;;;;;5094064;28;20075;-81
2022/09/14 05:51:26;;;;;;;1999.90;999.90;;;15.90;1.00;;;;;;5110916;28;20075;-82
2022/09/14 05:53:57;;;;;;;1999.90;382.98;;;15.90;1.00;;;;;;5112534;28;20423;-83
2022/09/14 05:56:25;;;;;;;1999.90;999.90;;;15.90;1.00;;;;;;5112418;28;20046;-81
2022/09/14 05:58:51;;;;;;;;;;;16.00;1.00;;;;;;5093968;28;20136;-82
2022/09/14 06:01:25;;;;;;;1999.90;999.90;;;16.00;1.00;;;;;;5111452;28;19920;-82
2022/09/14 06:03:55;;;;;;;1999.90;999.90;;;16.10;1.00;;;;;;5110582;28;20043;-86
2022/09/14 06:06:21;;;;;;;1999.90;999.90;;;16.10;1.00;;;;;;5094994;28;20056;-81
2022/09/14 06:08:51;;;;;;;1999.90;999.90;;;16.10;1.00;;;;;;5112617;28;20044;-86
2022/09/14 06:11:19;;;;;;;1999.90;999.90;;;16.20;1.00;;;;;;5094691;28;20567;-81
2022/09/14 06:13:48;;;;;;;1999.90;999.90;;;16.30;1.00;;;;;;5112781;28;20051;-82
2022/09/14 06:16:17;;;;;;;1999.90;820.47;;;16.30;1.00;;;;;;5093989;28;20051;-81
2022/09/14 06:18:44;;;;;;;1999.90;999.90;;;16.50;1.00;;;;;;5111843;28;20126;-81
2022/09/14 06:21:14;;;;;;;1999.90;999.90;;;16.50;1.00;;;;;;5092955;28;20043;-82
2022/09/14 06:23:40;;;;;;;1999.90;824.17;;;16.50;1.00;;;;;;5093185;28;20789;-81
2022/09/14 06:26:06;;;;;;;1999.90;999.90;;;16.60;1.00;;;;;;5110508;28;20047;-82
2022/09/14 06:28:35;;;;;;;1999.90;999.90;;;16.70;1.00;;;;;;5111543;28;20043;-82
2022/09/14 06:31:03;;;;;;;1999.90;858.55;;;16.80;1.00;;;;;;5112255;28;20070;-82
2022/09/14 06:33:29;;;;;;;1999.90;999.90;;;17.20;1.00;;;;;;5094268;28;20047;-83
2022/09/14 06:36:11;;;;;;;1999.90;999.90;;;17.00;1.00;;;;;;5112735;28;20126;-82
2022/09/14 06:38:37;;;;;;;1999.90;999.90;;;17.10;1.00;;;;;;5112647;28;20047;-81
2022/09/14 06:41:05;;;;;;;1999.90;999.90;;;17.20;1.00;;;;;;5112536;28;20043;-81
2022/09/14 06:43:33;;;;;;;1999.90;999.90;;;17.30;1.00;;;;;;5112620;28;20095;-85
2022/09/14 06:46:14;;;;;;;1999.90;999.90;;;17.40;1.00;;;;;;5094494;28;20051;-83
2022/09/14 06:48:44;;;;;;;1999.90;890.78;;;17.50;1.00;;;;;;5094752;28;20093;-82
2022/09/14 06:51:16;;;;;;;1999.90;999.90;;;17.50;99.90;;;;;;5094573;28;20043;-82
2022/09/14 06:53:43;;;;;;;1999.90;999.90;;;17.60;99.90;;;;;;5094723;28;20040;-83
2022/09/14 06:56:09;;;;;;;1999.90;984.13;;;17.60;99.90;;;;;;5111498;28;20046;-83
2022/09/14 06:58:35;;;;;;;1999.90;869.40;;;17.70;99.90;;;;;;5112576;28;20048;-83
2022/09/14 07:01:05;;;;;;;1999.90;999.90;;;17.70;99.90;;;;;;5112825;28;20392;-83
2022/09/14 07:03:34;;;;;;;1999.90;999.90;;;17.80;99.90;;;;;;5095107;28;20046;-83
2022/09/14 07:06:05;;;;;;;1999.90;932.15;;;17.90;99.90;;;;;;5112462;28;20047;-83
2022/09/14 07:08:33;;;;;;;1999.90;823.72;;;18.00;99.90;;;;;;5112424;28;20056;-83
2022/09/14 07:10:59;;;;;;;1999.90;999.90;;;18.00;99.90;;;;;;5094746;28;20048;-82
2022/09/14 07:13:26;;;;;;;1999.90;999.90;;;18.10;99.90;;;;;;5112800;28;20637;-82
2022/09/14 07:15:52;;;;;;;1999.90;848.30;;;18.20;99.90;;;;;;5112721;28;20063;-83
2022/09/14 07:18:17;;;;;;;1999.90;999.90;;;18.30;99.90;;;;;;5112322;28;20044;-82
2022/09/14 07:20:43;;;;;;;1999.90;999.90;;;18.40;99.90;;;;;;5111791;28;20198;-82
2022/09/14 07:23:11;;;;;;;1999.90;999.90;;;18.60;99.90;;;;;;5109782;28;20143;-82
2022/09/14 07:25:37;;;;;;;1999.90;999.90;;;18.70;99.90;;;;;;5077701;28;20063;-83
2022/09/14 07:28:03;;;;;;;1999.90;999.90;;;18.90;99.90;;;;;;5111552;28;20134;-82
2022/09/14 07:30:29;;;;;;;1999.90;999.90;;;19.00;99.90;;;;;;5112439;28;20050;-83
2022/09/14 07:32:54;;;;;;;1999.90;999.90;;;19.20;99.90;;;;;;5112486;28;20050;-82
2022/09/14 07:35:20;;;;;;;1999.90;999.90;;;19.50;99.90;;;;;;5110972;28;20135;-82
2022/09/14 07:37:46;;;;;;;1999.90;999.90;;;19.80;99.90;;;;;;5111715;28;20043;-82
2022/09/14 07:40:11;;;;;;;1999.90;999.90;;;20.00;99.90;;;;;;5077558;28;20050;-82
2022/09/14 07:42:37;;;;;;;1999.90;999.90;;;20.10;99.90;;;;;;5094095;28;20044;-82
2022/09/14 07:45:04;;;;;;;1999.90;946.60;;;20.30;99.90;;;;;;5110957;28;20044;-83
2022/09/14 07:47:30;;;;;;;1999.90;838.87;;;20.40;99.90;;;;;;5077008;28;20176;-82
2022/09/14 07:49:56;;;;;;;1999.90;987.50;;;20.50;99.90;;;;;;5094038;28;20048;-82
2022/09/14 07:52:22;;;;;;;1999.90;999.90;;;20.50;99.90;;;;;;5092947;28;20123;-82
2022/09/14 07:54:48;;;;;;;1857.03;836.45;;;20.60;99.90;;;;;;5112412;28;20130;-82
2022/09/14 07:57:14;;;;;;;1999.90;595.58;;;20.70;99.90;;;;;;5111030;28;20256;-82
2022/09/14 07:59:40;;;;;;;1911.88;852.63;;;21.10;99.90;;;;;;5077876;28;20044;-82
2022/09/14 08:02:07;;;;;;;1383.40;363.30;;;21.20;99.90;;;;;;5115667;28;20043;-82
2022/09/14 08:04:39;;;;;;;1261.90;332.92;;;21.20;99.90;;;;;;5116018;28;20058;-81
2022/09/14 08:07:06;;;;;;;1999.90;999.90;;;21.20;99.90;;;;;;5115089;28;20039;-81
2022/09/14 08:09:36;;;;;;;1999.90;999.90;;;21.60;99.90;;;;;;5115525;28;20055;-82
2022/09/14 08:12:04;;;;;;;1999.90;999.90;;;21.30;99.90;;;;;;5115260;28;20062;-82
2022/09/14 08:14:30;;;;;;;1999.90;999.90;;;21.30;99.90;;;;;;5080393;28;20504;-82
2022/09/14 08:16:56;;;;;;;1999.90;999.90;;;21.20;99.90;;;;;;5080496;28;20139;-82
2022/09/14 08:19:21;;;;;;;1999.90;999.90;;;21.20;99.90;;;;;;5096548;28;20040;-83
2022/09/14 08:21:47;;;;;;;1999.90;999.90;;;21.30;99.90;;;;;;5097755;28;20483;-83
2022/09/14 08:24:17;;;;;;;1999.90;999.90;;;21.30;99.90;;;;;;5096740;28;20047;-82
2022/09/14 08:26:42;;;;;;;1999.90;999.90;;;21.80;99.90;;;;;;5097630;28;20433;-82
2022/09/14 08:29:08;;;;;;;1999.90;999.90;;;22.00;99.90;;;;;;5115508;28;20086;-81
2022/09/14 08:31:38;;;;;;;1999.90;999.90;;;22.10;99.90;;;;;;5080467;28;20083;-82
2022/09/14 08:34:04;;;;;;;1999.90;999.90;;;22.50;99.90;;;;;;5115472;28;20050;-82
2022/09/14 08:36:34;;;;;;;1999.90;999.90;;;22.50;99.90;;;;;;5080269;28;20046;-82
2022/09/14 08:39:00;;;;;;;1999.90;999.90;;;22.50;99.90;;;;;;5097031;28;20101;-83
2022/09/14 08:41:31;;;;;;;1999.90;999.90;;;22.50;99.90;;;;;;5096230;28;20381;-82
2022/09/14 08:44:24;;;;;;;1999.90;999.90;;;22.50;99.90;;;;;;5097060;28;20552;-81
2022/09/14 08:47:11;;;;;;;1999.90;999.90;;;22.60;99.90;;;;;;5088953;28;20067;-82
2022/09/14 08:49:43;;;;;;;1999.90;999.90;;;22.90;99.90;;;;;;5115182;28;20416;-81
2022/09/14 08:52:31;;;;;;;1999.90;999.90;;;23.00;99.90;;;;;;5095897;28;20047;-82
2022/09/14 08:55:13;;;;;;;1999.90;999.90;;;23.00;99.90;;;;;;5114881;28;20051;-82
2022/09/14 08:57:47;;;;;;;1999.90;999.90;;;23.30;99.90;;;;;;5114739;28;20039;-81
2022/09/14 09:00:17;;;;;;;1999.90;999.90;;;24.30;83.50;;;;;;5096540;28;20500;-84
2022/09/14 09:03:10;;;;;;;1999.90;999.90;;;24.60;65.50;;;;;;5114012;28;20087;-82
2022/09/14 09:05:40;;;;;;;1999.90;999.90;;;24.50;23.20;;;;;;5115179;28;20043;-81
2022/09/14 09:08:23;;;;;;;1999.90;999.90;;;24.50;28.70;;;;;;5114410;28;20047;-82
2022/09/14 09:10:52;;;;;;;1999.90;999.90;;;25.30;24.90;;;;;;5096580;28;20084;-81
2022/09/14 09:13:21;;;;;;;1999.90;999.90;;;25.90;21.30;;;;;;5090366;28;20104;-82
2022/09/14 09:15:53;;;;;;;1999.90;999.90;;;26.80;17.00;;;;;;5092627;28;20048;-82
2022/09/14 09:18:49;;;;;;;1999.90;999.90;;;27.30;1.00;;;;;;5075672;28;20370;-82
2022/09/14 09:21:18;;;;;;;1999.90;999.90;;;28.10;1.00;;;;;;5092441;28;20451;-82
2022/09/14 09:23:44;;;;;;;1999.90;999.90;;;28.60;1.00;;;;;;5075855;28;20126;-83
2022/09/14 09:26:28;;;;;;;1987.13;964.17;;;28.70;1.00;;;;;;5060074;28;20087;-83
2022/09/14 09:28:58;;;;;;;1439.78;784.13;;;28.70;1.00;;;;;;5093772;28;20040;-85
2022/09/14 09:31:32;;;;;;;510.65;474.08;;;28.70;1.00;;;;;;5094955;28;20055;-82
2022/09/14 09:34:00;;;;;;;1044.05;896.42;;;28.50;1.00;;;;;;5095398;28;20040;-81
2022/09/14 09:36:32;;;;;;;1655.63;995.33;;;28.30;1.00;;;;;;5076508;28;20097;-83
2022/09/14 09:38:58;;;;;;;996.90;896.47;;;28.40;1.00;;;;;;5093468;28;20089;-82
2022/09/14 09:41:28;;;;;;;1059.47;929.55;;;28.20;1.00;;;;;;5093538;28;20037;-82
2022/09/14 09:43:59;;;;;;;1999.90;999.90;;;28.20;1.00;;;;;;5076170;28;20123;-82
2022/09/14 09:46:29;;;;;;;631.33;576.47;;;28.70;1.00;;;;;;5076449;28;20469;-81
2022/09/14 09:48:55;;;;;;;268.15;250.38;;;29.00;1.00;;;;;;5093992;28;20109;-81
2022/09/14 09:51:28;;;;;;;304.83;252.65;;;29.10;1.00;;;;;;5043077;28;20048;-82
2022/09/14 09:54:29;;;;;;;313.70;256.13;;;29.50;1.00;;;;;;5092360;28;20408;-82
2022/09/14 09:57:04;;;;;;;225.93;210.75;;;30.90;1.00;;;;;;5026636;28;20059;-83
2022/09/14 09:59:41;;;;;;;733.38;665.85;;;31.80;1.00;;;;;;5076053;28;20059;-83
2022/09/14 10:02:23;;;;;;;293.45;272.30;;;31.70;1.00;;;;;;5076584;28;20455;-84
2022/09/14 10:04:59;;;;;;;621.30;575.47;;;31.30;1.00;;;;;;5095937;28;20400;-80
2022/09/14 10:07:26;;;;;;;253.23;234.45;;;30.30;1.00;;;;;;5075956;28;20522;-82
2022/09/14 10:10:03;;;;;;;44.88;41.05;;;29.70;1.00;;;;;;5075494;28;20040;-84
2022/09/14 10:12:29;;;;;;;768.30;472.52;;;28.90;1.00;;;;;;5091256;28;20052;-83
2022/09/14 10:15:04;;;;;;;950.83;544.83;;;28.30;1.00;;;;;;5091119;28;20500;-83
2022/09/14 10:17:30;;;;;;;252.20;236.73;;;27.70;1.00;;;;;;5092399;28;20161;-81
2022/09/14 10:19:57;;;;;;;1999.90;884.10;;;27.40;1.00;;;;;;5092832;28;20142;-82
2022/09/14 10:22:34;;;;;;;60.88;56.70;;;27.10;1.00;;;;;;5074032;28;20549;-83
2022/09/14 10:25:24;;;;;;;251.82;233.82;;;26.90;1.00;;;;;;5093227;28;20098;-83
2022/09/14 10:27:59;;;;;;;658.53;481.23;;;26.50;1.00;;;;;;5093781;28;20052;-83
2022/09/14 10:30:46;;;;;;;380.10;353.05;;;26.70;1.00;;;;;;5092081;28;20044;-81
2022/09/14 10:33:14;;;;;;;939.60;746.45;;;26.80;1.00;;;;;;5092775;28;20054;-83
2022/09/14 10:35:55;;;;;;;54.42;50.55;;;27.30;1.00;;;;;;5092079;28;20052;-83
2022/09/14 10:38:51;;;;;;;110.70;102.72;;;28.10;1.00;;;;;;5091491;28;20039;-83
2022/09/14 10:41:42;;;;;;;150.40;140.43;;;29.30;1.00;;;;;;5091958;28;20119;-79
2022/09/14 10:44:32;;;;;;;1053.88;952.63;;;31.20;1.00;;;;;;5091688;28;20079;-83
2022/09/14 10:47:16;;;;;;;175.55;162.75;;;32.10;1.00;;;;;;5092820;28;20545;-84
2022/09/14 10:49:56;;;;;;;992.60;912.05;;;31.60;1.00;;;;;;5091439;28;20051;-84
2022/09/14 10:52:53;;;;;;;188.50;172.63;;;30.80;1.00;;;;;;5091929;28;20132;-88
2022/09/14 10:55:43;;;;;;;431.45;395.55;;;29.90;1.00;;;;;;5091663;28;20129;-84
2022/09/14 10:58:12;;;;;;;1999.90;999.90;;;29.30;1.00;;;;;;5092672;28;20059;-84
2022/09/14 11:01:07;;;;;;;1088.25;986.05;;;29.50;1.00;;;;;;5075995;28;20048;-82
2022/09/14 11:03:57;;;;;;;975.50;888.53;;;30.30;1.00;;;;;;5037916;28;20496;-82
2022/09/14 11:06:49;;;;;;;906.83;832.63;;;30.20;1.00;;;;;;5092162;28;20059;-83
2022/09/14 11:09:35;;;;;;;972.72;893.33;;;29.40;1.00;;;;;;5059117;28;20043;-86
2022/09/14 11:12:12;;;;;;;548.28;495.02;;;29.00;1.00;;;;;;5059582;28;20083;-86
2022/09/14 11:15:07;;;;;;;933.10;848.08;;;31.00;1.00;;;;;;5076308;28;20087;-84
2022/09/14 11:18:02;;;;;;;708.13;651.08;;;31.50;99.90;;;;;;5074692;28;20400;-80
2022/09/14 11:20:33;;;;;;;958.40;856.33;;;31.90;99.90;;;;;;5057109;28;20109;-80
2022/09/14 11:23:02;;;;;;;1999.90;999.90;;;31.20;99.90;;;;;;5091482;28;20534;-82
2022/09/14 11:25:43;;;;;;;1094.43;969.33;;;31.00;99.90;;;;;;5092488;28;20051;-81
2022/09/14 11:28:16;;;;;;;428.17;393.85;;;30.60;99.90;;;;;;5074590;28;20499;-83
2022/09/14 11:30:50;;;;;;;1083.43;988.03;;;30.10;99.90;;;;;;5092524;28;20036;-82
2022/09/14 11:33:45;;;;;;;396.60;366.52;;;29.50;99.90;;;;;;5091615;28;20051;-81
2022/09/14 11:36:20;;;;;;;414.75;380.17;;;28.90;99.90;;;;;;5094529;28;20102;-81
2022/09/14 11:38:58;;;;;;;383.33;354.92;;;28.10;1.00;;;;;;5077459;28;20044;-81
2022/09/14 11:41:41;;;;;;;1749.28;910.78;;;28.50;1.00;;;;;;5094617;28;20060;-82
2022/09/14 11:44:16;;;;;;;463.70;429.35;;;28.40;1.00;;;;;;5096430;28;20082;-80
2022/09/14 11:46:48;;;;;;;119.93;112.15;;;28.30;1.00;;;;;;5095296;28;20078;-81
2022/09/14 11:49:38;;;;;;;228.07;155.40;;;28.50;1.00;;;;;;5094907;28;20554;-81
2022/09/14 11:52:34;;;;;;;114.03;105.60;;;28.50;1.00;;;;;;5078009;28;20059;-80
2022/09/14 11:55:07;;;;;;;1429.88;947.60;;;28.30;1.00;;;;;;5095652;28;20131;-84
2022/09/14 11:57:33;;;;;;;818.55;753.53;;;28.60;1.00;;;;;;5077782;28;20043;-82
2022/09/14 12:00:22;;;;;;;852.50;583.58;;;29.20;1.00;;;;;;5095768;28;20044;-83
2022/09/14 12:03:13;;;;;;;850.15;592.30;;;29.80;1.00;;;;;;5052044;28;20071;-84
2022/09/14 12:05:42;;;;;;;429.58;398.40;;;29.40;1.00;;;;;;5077177;28;20473;-83
2022/09/14 12:08:23;;;;;;;147.13;135.10;;;29.00;1.00;;;;;;5093662;28;20122;-83
2022/09/14 12:11:25;;;;;;;273.02;253.77;;;28.40;99.90;;;;;;5095215;28;20044;-83
2022/09/14 12:14:13;;;;;;;91.55;84.63;;;27.80;1.00;;;;;;5091001;28;20635;-83
2022/09/14 12:17:02;;;;;;;1622.60;743.45;;;27.10;1.00;;;;;;5093694;28;20057;-84
2022/09/14 12:19:29;;;;;;;580.88;525.58;;;26.50;1.00;;;;;;5093757;28;20122;-82
2022/09/14 12:21:56;;;;;;;1018.00;502.60;;;26.20;1.00;;;;;;5094284;28;20052;-85
2022/09/14 12:24:22;;;;;;;498.43;464.27;;;26.00;1.00;;;;;;5060612;28;20181;-83
2022/09/14 12:26:47;;;;;;;1608.00;750.58;;;25.70;1.00;;;;;;5095123;28;20389;-83
2022/09/14 12:29:25;;;;;;;30.27;27.95;;;25.50;1.00;;;;;;5093848;28;20052;-83
2022/09/14 12:31:50;;;;;;;752.97;691.90;;;25.20;1.00;;;;;;5094073;28;20400;-84